Time;durP1;ratioP1;P1;durP2;ratioP2;P2;SDS_P1;SDS_P2;PMS_P1;PMS_P2;Temp;Humidity;BMP_temperature;BMP_pressure;BME280_temperature;BME280_humidity;BME280_pressure;Samples;Min_cycle;Max_cycle;Signal;HPM_P1;HPM_P2
2022/05/10 00:01:01;;;;;;;8.10;3.20;;;;;;;;;;6246446;23;20011;-81
2022/05/10 00:03:37;;;;;;;5.22;2.90;;;;;;;;;;6246485;23;20031;-81
2022/05/10 00:06:05;;;;;;;4.68;2.65;;;;;;;;;;6219862;23;20313;-81
2022/05/10 00:08:31;;;;;;;5.47;3.03;;;;;;;;;;6246359;23;20054;-84
2022/05/10 00:10:57;;;;;;;5.93;2.95;;;;;;;;;;6246343;23;20032;-80
2022/05/10 00:13:24;;;;;;;4.90;2.67;;;;;;;;;;6246327;23;20058;-79
2022/05/10 00:15:50;;;;;;;5.50;2.85;;;;;;;;;;6219499;23;20011;-81
2022/05/10 00:18:17;;;;;;;3.63;2.83;;;;;;;;;;6246134;23;20000;-82
2022/05/10 00:20:44;;;;;;;6.93;3.35;;;;;;;;;;6246188;23;20081;-83
2022/05/10 00:23:10;;;;;;;7.32;3.50;;;;;;;;;;6246276;23;20008;-79
2022/05/10 00:25:38;;;;;;;4.55;3.15;;;;;;;;;;6246219;23;20368;-80
2022/05/10 00:28:04;;;;;;;6.63;2.92;;;;;;;;;;6246394;23;20075;-81
2022/05/10 00:30:30;;;;;;;7.90;3.00;;;;;;;;;;6246283;23;19999;-80
2022/05/10 00:32:56;;;;;;;4.43;3.03;;;;;;;;;;6246149;23;20375;-80
2022/05/10 00:35:27;;;;;;;5.65;2.83;;;;;;;;;;6246096;23;20007;-81
2022/05/10 00:37:55;;;;;;;7.30;3.60;;;;;;;;;;6246091;23;20004;-83
2022/05/10 00:40:23;;;;;;;3.20;2.75;;;;;;;;;;6246184;23;20336;-82
2022/05/10 00:42:55;;;;;;;4.55;3.08;;;;;;;;;;6246133;23;20012;-79
2022/05/10 00:45:40;;;;;;;6.97;3.03;;;;;;;;;;6246272;23;20443;-83
2022/05/10 00:48:12;;;;;;;6.95;3.15;;;;;;;;;;6246089;23;20463;-83
2022/05/10 00:50:57;;;;;;;6.03;3.00;;;;;;;;;;6219201;23;20419;-80
2022/05/10 00:53:34;;;;;;;5.15;3.47;;;;;;;;;;6246621;23;20434;-79
2022/05/10 00:56:18;;;;;;;5.53;3.03;;;;;;;;;;6246545;23;20436;-82
2022/05/10 00:58:47;;;;;;;6.95;3.10;;;;;;;;;;6246126;23;19996;-82
2022/05/10 01:01:16;;;;;;;5.38;3.30;;;;;;;;;;6246107;23;20027;-81
2022/05/10 01:03:48;;;;;;;5.43;3.65;;;;;;;;;;6246046;23;20054;-81
2022/05/10 01:06:21;;;;;;;5.57;2.80;;;;;;;;;;6246195;23;20095;-79
2022/05/10 01:09:06;;;;;;;5.43;3.00;;;;;;;;;;6246392;23;20023;-83
2022/05/10 01:11:32;;;;;;;;;;;;;;;;;;6246581;23;20051;-84
2022/05/10 01:14:04;;;;;;;4.20;3.15;;;;;;;;;;6246025;23;20315;-83
2022/05/10 01:16:30;;;;;;;4.75;2.95;;;;;;;;;;6219098;23;20004;-79
2022/05/10 01:18:56;;;;;;;5.90;2.80;;;;;;;;;;6246095;23;20003;-80
2022/05/10 01:21:22;;;;;;;5.40;2.78;;;;;;;;;;6219001;23;20321;-83
2022/05/10 01:23:50;;;;;;;4.32;3.00;;;;;;;;;;6245907;23;20024;-84
2022/05/10 01:26:19;;;;;;;4.07;2.85;;;;;;;;;;6246097;23;20062;-81
2022/05/10 01:28:47;;;;;;;5.05;3.00;;;;;;;;;;6245884;23;20004;-81
2022/05/10 01:31:18;;;;;;;5.72;3.22;;;;;;;;;;6247151;23;20035;-80
2022/05/10 01:33:49;;;;;;;5.88;3.33;;;;;;;;;;6247828;23;20382;-80
2022/05/10 01:36:33;;;;;;;4.50;3.00;;;;;;;;;;6247810;23;20019;-82
2022/05/10 01:38:59;;;;;;;6.03;3.20;;;;;;;;;;6248020;23;20004;-79
2022/05/10 01:41:29;;;;;;;4.90;3.40;;;;;;;;;;6247733;23;20000;-80
2022/05/10 01:44:05;;;;;;;4.60;3.17;;;;;;;;;;6247871;23;20004;-81
2022/05/10 01:46:32;;;;;;;5.10;3.20;;;;;;;;;;6247727;23;19992;-82
2022/05/10 01:49:17;;;;;;;4.35;2.95;;;;;;;;;;6247777;23;20447;-81
2022/05/10 01:51:43;;;;;;;;;;;;;;;;;;6248171;23;20000;-81
2022/05/10 01:54:27;;;;;;;6.07;3.40;;;;;;;;;;6221090;23;19909;-83
2022/05/10 01:56:54;;;;;;;3.00;2.67;;;;;;;;;;6220956;23;20349;-84
2022/05/10 01:59:20;;;;;;;5.72;2.95;;;;;;;;;;6220796;23;20602;-83
2022/05/10 02:01:46;;;;;;;4.47;2.75;;;;;;;;;;6247489;23;20428;-80
2022/05/10 02:04:14;;;;;;;7.18;3.50;;;;;;;;;;6247631;23;20075;-81
2022/05/10 02:06:40;;;;;;;6.00;4.07;;;;;;;;;;6247544;23;20003;-83
2022/05/10 02:09:25;;;;;;;4.30;3.17;;;;;;;;;;6220717;23;20511;-82
2022/05/10 02:11:51;;;;;;;;;;;;;;;;;;6248144;23;20110;-83
2022/05/10 02:14:23;;;;;;;5.40;3.92;;;;;;;;;;6247526;23;19904;-79
2022/05/10 02:16:51;;;;;;;5.70;3.28;;;;;;;;;;6247611;23;20006;-85
2022/05/10 02:19:23;;;;;;;5.03;3.28;;;;;;;;;;6247513;23;20000;-80
2022/05/10 02:21:56;;;;;;;5.82;3.22;;;;;;;;;;6247359;23;20039;-79
2022/05/10 02:24:22;;;;;;;6.85;4.07;;;;;;;;;;6247356;23;20000;-81
2022/05/10 02:27:06;;;;;;;5.45;3.88;;;;;;;;;;6247406;23;20045;-82
2022/05/10 02:29:42;;;;;;;5.03;3.50;;;;;;;;;;6247338;23;19997;-83
2022/05/10 02:35:01;;;;;;;3.90;2.95;;;;;;;;;;6247494;23;20400;-84
2022/05/10 02:37:27;;;;;;;4.65;3.20;;;;;;;;;;6220474;23;20004;-80
2022/05/10 02:39:53;;;;;;;5.60;2.78;;;;;;;;;;6247298;23;20000;-82
2022/05/10 02:42:21;;;;;;;5.15;3.30;;;;;;;;;;6246932;23;20012;-81
2022/05/10 02:44:47;;;;;;;15.50;3.83;;;;;;;;;;6247289;23;20000;-82
2022/05/10 02:47:13;;;;;;;4.78;3.20;;;;;;;;;;6247345;23;20020;-81
2022/05/10 02:49:40;;;;;;;7.25;3.45;;;;;;;;;;6247181;23;20395;-79
2022/05/10 02:52:07;;;;;;;4.43;3.05;;;;;;;;;;6247296;23;20065;-81
2022/05/10 02:54:33;;;;;;;4.10;3.10;;;;;;;;;;6246950;23;20089;-82
2022/05/10 02:57:00;;;;;;;3.75;3.10;;;;;;;;;;6247024;23;20011;-78
2022/05/10 02:59:28;;;;;;;5.70;3.70;;;;;;;;;;6247047;23;20000;-81
2022/05/10 03:02:01;;;;;;;5.93;3.47;;;;;;;;;;6247158;23;20007;-80
2022/05/10 03:04:41;;;;;;;7.15;3.25;;;;;;;;;;6246995;23;20058;-79
2022/05/10 03:07:08;;;;;;;7.90;3.60;;;;;;;;;;6246999;23;20005;-83
2022/05/10 03:09:35;;;;;;;7.18;3.30;;;;;;;;;;6220145;23;20423;-80
2022/05/10 03:12:05;;;;;;;5.85;3.42;;;;;;;;;;6246968;23;20082;-82
2022/05/10 03:14:31;;;;;;;6.97;3.95;;;;;;;;;;6246862;23;20000;-80
2022/05/10 03:16:58;;;;;;;6.00;3.55;;;;;;;;;;6247037;23;20000;-81
2022/05/10 03:19:24;;;;;;;5.32;3.20;;;;;;;;;;6246878;23;20420;-79
2022/05/10 03:21:50;;;;;;;8.38;4.10;;;;;;;;;;6246895;23;20004;-82
2022/05/10 03:24:16;;;;;;;5.75;3.33;;;;;;;;;;6247159;23;20010;-81
2022/05/10 03:26:47;;;;;;;6.38;3.80;;;;;;;;;;6219994;23;20008;-82
2022/05/10 03:29:15;;;;;;;8.20;3.47;;;;;;;;;;6246718;23;20034;-82
2022/05/10 03:31:41;;;;;;;5.72;3.75;;;;;;;;;;6246746;23;20032;-81
2022/05/10 03:36:52;;;;;;;;;;;;;;;;;;6247241;23;20019;-80
2022/05/10 03:39:18;;;;;;;4.53;3.13;;;;;;;;;;6246644;23;19919;-81
2022/05/10 03:41:44;;;;;;;9.52;8.05;;;;;;;;;;6246588;23;20000;-84
2022/05/10 03:44:10;;;;;;;7.05;3.85;;;;;;;;;;6246714;23;20066;-82
2022/05/10 03:46:37;;;;;;;11.52;5.90;;;;;;;;;;6246431;23;20376;-80
2022/05/10 03:49:03;;;;;;;11.55;4.72;;;;;;;;;;6246365;23;20328;-81
2022/05/10 03:51:30;;;;;;;13.13;6.55;;;;;;;;;;6246473;23;19997;-83
2022/05/10 03:53:57;;;;;;;8.65;4.43;;;;;;;;;;6246366;23;20010;-81
2022/05/10 03:56:24;;;;;;;6.70;4.43;;;;;;;;;;6246270;23;20012;-82
2022/05/10 03:58:50;;;;;;;9.02;4.50;;;;;;;;;;6246396;23;20432;-81
2022/05/10 04:01:19;;;;;;;6.57;4.00;;;;;;;;;;6246179;23;20426;-79
2022/05/10 04:03:46;;;;;;;7.78;4.45;;;;;;;;;;6245958;23;20004;-83
2022/05/10 04:06:12;;;;;;;7.40;4.00;;;;;;;;;;6246370;23;20075;-80
2022/05/10 04:08:38;;;;;;;6.70;4.07;;;;;;;;;;6246400;23;20035;-84
2022/05/10 04:11:05;;;;;;;9.85;3.92;;;;;;;;;;6246553;23;20000;-80
2022/05/10 04:13:32;;;;;;;5.63;3.40;;;;;;;;;;6246341;23;20000;-82
2022/05/10 04:15:58;;;;;;;7.10;3.40;;;;;;;;;;6246298;23;20000;-80
2022/05/10 04:18:24;;;;;;;6.07;3.63;;;;;;;;;;6246317;23;20031;-78
2022/05/10 04:20:50;;;;;;;7.78;3.42;;;;;;;;;;6245956;23;20047;-80
2022/05/10 04:23:19;;;;;;;4.90;3.25;;;;;;;;;;6246205;23;20424;-82
2022/05/10 04:25:45;;;;;;;7.40;3.17;;;;;;;;;;6246271;23;19996;-82
2022/05/10 04:28:12;;;;;;;5.60;3.75;;;;;;;;;;6245556;23;20050;-82
2022/05/10 04:30:38;;;;;;;6.38;4.10;;;;;;;;;;6246401;23;20442;-80
2022/05/10 04:33:04;;;;;;;5.28;2.90;;;;;;;;;;6246238;23;20035;-79
2022/05/10 04:35:30;;;;;;;4.97;3.00;;;;;;;;;;6246178;23;20360;-80
2022/05/10 04:37:56;;;;;;;5.22;2.65;;;;;;;;;;6246249;23;20067;-78
2022/05/10 04:43:07;;;;;;;;;;;;;;;;;;6246275;23;20070;-82
2022/05/10 04:45:33;;;;;;;3.85;2.55;;;;;;;;;;6219299;23;20234;-79
2022/05/10 04:48:00;;;;;;;6.18;3.03;;;;;;;;;;6245882;23;20009;-80
2022/05/10 04:50:26;;;;;;;4.78;2.72;;;;;;;;;;6246117;23;20000;-82
2022/05/10 04:52:52;;;;;;;14.90;3.28;;;;;;;;;;6246413;22;20011;-82
2022/05/10 04:55:20;;;;;;;21.38;3.97;;;;;;;;;;6245931;23;20091;-81
2022/05/10 04:57:47;;;;;;;4.63;3.08;;;;;;;;;;6246137;23;20015;-82
2022/05/10 05:00:14;;;;;;;6.60;3.50;;;;;;;;;;6245957;23;19996;-80
2022/05/10 05:02:46;;;;;;;5.20;3.05;;;;;;;;;;6219751;23;20349;-80
2022/05/10 05:05:12;;;;;;;4.53;2.50;;;;;;;;;;6220693;23;20511;-78
2022/05/10 05:07:39;;;;;;;6.25;2.80;;;;;;;;;;6248223;23;20028;-79
2022/05/10 05:10:05;;;;;;;7.60;3.17;;;;;;;;;;6248090;23;20054;-80
2022/05/10 05:12:35;;;;;;;6.75;3.00;;;;;;;;;;6221422;23;20004;-79
2022/05/10 05:15:01;;;;;;;7.30;3.20;;;;;;;;;;6247535;23;20059;-81
2022/05/10 05:17:28;;;;;;;5.88;3.72;;;;;;;;;;6247551;23;20011;-80
2022/05/10 05:19:54;;;;;;;5.43;3.42;;;;;;;;;;6248428;23;20119;-81
2022/05/10 05:22:20;;;;;;;8.05;4.07;;;;;;;;;;6220960;23;20008;-81
2022/05/10 05:24:46;;;;;;;10.65;3.60;;;;;;;;;;6246691;23;20004;-80
2022/05/10 05:27:12;;;;;;;5.00;3.33;;;;;;;;;;6247646;23;20058;-78
2022/05/10 05:29:39;;;;;;;13.02;6.85;;;;;;;;;;6247827;23;19997;-78
2022/05/10 05:32:09;;;;;;;9.80;5.50;;;;;;;;;;6245500;23;20010;-83
2022/05/10 05:34:35;;;;;;;8.82;5.10;;;;;;;;;;6246189;23;20001;-82
2022/05/10 05:39:46;;;;;;;10.40;5.63;;;;;;;;;;6242027;23;20012;-78
2022/05/10 05:42:12;;;;;;;11.15;6.03;;;;;;;;;;6245064;23;20494;-79
2022/05/10 05:44:38;;;;;;;9.80;6.78;;;;;;;;;;6245687;23;20054;-79
2022/05/10 05:47:05;;;;;;;15.10;7.47;;;;;;;;;;6245685;23;20004;-79
2022/05/10 05:49:31;;;;;;;15.38;6.97;;;;;;;;;;6245333;23;19999;-80
2022/05/10 05:52:01;;;;;;;17.83;9.23;;;;;;;;;;6245243;23;20004;-80
2022/05/10 05:54:28;;;;;;;10.80;7.38;;;;;;;;;;6245436;23;20293;-81
2022/05/10 05:57:00;;;;;;;14.82;6.82;;;;;;;;;;6244793;23;20019;-80
2022/05/10 05:59:27;;;;;;;11.07;5.45;;;;;;;;;;6218900;23;20020;-82
2022/05/10 06:01:53;;;;;;;14.35;7.03;;;;;;;;;;6244609;23;20043;-78
2022/05/10 06:04:19;;;;;;;23.15;9.60;;;;;;;;;;6245157;23;20046;-82
2022/05/10 06:06:46;;;;;;;65.28;20.38;;;;;;;;;;6244927;23;20000;-83
2022/05/10 06:09:12;;;;;;;198.93;56.13;;;;;;;;;;6244734;23;20015;-82
2022/05/10 06:11:38;;;;;;;53.55;20.35;;;;;;;;;;6245571;23;20002;-82
2022/05/10 06:14:05;;;;;;;25.88;10.00;;;;;;;;;;6245393;23;20075;-80
2022/05/10 06:16:31;;;;;;;10.52;5.30;;;;;;;;;;6245098;23;19996;-81
2022/05/10 06:18:57;;;;;;;10.75;5.72;;;;;;;;;;6245561;23;20011;-81
2022/05/10 06:21:23;;;;;;;14.88;6.68;;;;;;;;;;6245354;23;20387;-80
2022/05/10 06:23:49;;;;;;;19.88;7.57;;;;;;;;;;6243926;23;20495;-73
2022/05/10 06:26:15;;;;;;;58.25;21.15;;;;;;;;;;6245056;23;20328;-80
2022/05/10 06:28:42;;;;;;;56.03;20.52;;;;;;;;;;6245368;23;20007;-80
2022/05/10 06:31:09;;;;;;;83.20;28.00;;;;;;;;;;6244353;23;20004;-80
2022/05/10 06:33:35;;;;;;;91.28;30.67;;;;;;;;;;6245182;23;20008;-80
2022/05/10 06:36:01;;;;;;;130.40;45.45;;;;;;;;;;6244310;23;20012;-79
2022/05/10 06:38:28;;;;;;;157.82;54.53;;;;;;;;;;6244602;23;20004;-79
2022/05/10 06:41:07;;;;;;;;;;;;;;;;;;;;;
2022/05/10 06:43:38;;;;;;;79.63;31.33;;;;;;;;;;6245149;23;20075;-83
2022/05/10 06:46:23;;;;;;;30.83;13.70;;;;;;;;;;6218136;23;20066;-82
2022/05/10 06:48:49;;;;;;;15.50;6.72;;;;;;;;;;6244934;23;20023;-80
2022/05/10 06:51:16;;;;;;;30.88;12.77;;;;;;;;;;6244815;23;20000;-82
2022/05/10 06:53:43;;;;;;;38.17;17.77;;;;;;;;;;6245517;23;20000;-80
2022/05/10 06:56:10;;;;;;;26.58;11.50;;;;;;;;;;6244613;23;20333;-82
2022/05/10 06:58:36;;;;;;;29.42;11.98;;;;;;;;;;6245061;23;20050;-83
2022/05/10 07:01:04;;;;;;;29.08;12.23;;;;;;;;;;6245063;23;20003;-83
2022/05/10 07:03:32;;;;;;;28.20;9.93;;;;;;;;;;6245061;23;20008;-83
2022/05/10 07:06:07;;;;;;;30.83;11.23;;;;;;;;;;6245192;23;20067;-83
2022/05/10 07:08:33;;;;;;;18.20;7.47;;;;;;;;;;6245132;23;20071;-85
2022/05/10 07:10:59;;;;;;;18.20;7.45;;;;;;;;;;6244996;23;20004;-82
2022/05/10 07:13:27;;;;;;;19.55;6.65;;;;;;;;;;6245075;23;20417;-81
2022/05/10 07:15:53;;;;;;;18.95;8.00;;;;;;;;;;6217878;23;20015;-80
2022/05/10 07:18:20;;;;;;;13.93;6.15;;;;;;;;;;6245112;23;20054;-80
2022/05/10 07:20:47;;;;;;;11.65;5.63;;;;;;;;;;6244788;23;20064;-81
2022/05/10 07:23:14;;;;;;;12.70;6.97;;;;;;;;;;6244649;23;20008;-81
2022/05/10 07:25:40;;;;;;;12.25;4.95;;;;;;;;;;6244883;23;20019;-83
2022/05/10 07:28:07;;;;;;;17.20;4.93;;;;;;;;;;6217803;23;20031;-82
2022/05/10 07:30:34;;;;;;;12.43;4.35;;;;;;;;;;6244165;23;20011;-80
2022/05/10 07:33:04;;;;;;;17.58;13.75;;;;;;;;;;6244859;23;20005;-80
2022/05/10 07:38:16;;;;;;;5.72;2.90;;;;;;;;;;6244944;23;20521;-80
2022/05/10 07:40:43;;;;;;;6.15;2.95;;;;;;;;;;6244346;23;20031;-78
2022/05/10 07:43:10;;;;;;;4.38;2.70;;;;;;;;;;6244415;23;20502;-80
2022/05/10 07:45:36;;;;;;;6.15;2.70;;;;;;;;;;6244672;23;20008;-80
2022/05/10 07:48:03;;;;;;;7.80;2.90;;;;;;;;;;6244721;23;20058;-79
2022/05/10 07:50:29;;;;;;;4.57;2.40;;;;;;;;;;6244864;23;20075;-83
2022/05/10 07:52:55;;;;;;;19.48;4.57;;;;;;;;;;6245065;23;20008;-82
2022/05/10 07:55:21;;;;;;;27.77;21.92;;;;;;;;;;6244582;23;20523;-81
2022/05/10 07:57:47;;;;;;;9.52;5.43;;;;;;;;;;6244781;23;20428;-82
2022/05/10 08:00:14;;;;;;;6.63;3.95;;;;;;;;;;6244345;23;20004;-78
2022/05/10 08:02:44;;;;;;;4.82;2.13;;;;;;;;;;6243026;23;20016;-79
2022/05/10 08:05:17;;;;;;;22.90;8.23;;;;;;;;;;6217624;23;20050;-79
2022/05/10 08:07:43;;;;;;;4.90;2.75;;;;;;;;;;6244755;23;19996;-79
2022/05/10 08:10:10;;;;;;;7.88;3.28;;;;;;;;;;6244526;23;20375;-80
2022/05/10 08:12:37;;;;;;;41.72;27.63;;;;;;;;;;6244533;23;19996;-81
2022/05/10 08:15:04;;;;;;;69.65;38.72;;;;;;;;;;6216750;23;20010;-79
2022/05/10 08:17:30;;;;;;;11.73;5.50;;;;;;;;;;6244576;23;20001;-79
2022/05/10 08:19:57;;;;;;;9.25;3.88;;;;;;;;;;6244685;23;20451;-80
2022/05/10 08:22:23;;;;;;;37.97;12.18;;;;;;;;;;6244075;23;20007;-87
2022/05/10 08:24:49;;;;;;;43.50;15.07;;;;;;;;;;6244369;23;20447;-84
2022/05/10 08:27:15;;;;;;;49.47;16.75;;;;;;;;;;6243393;23;20004;-78
2022/05/10 08:29:42;;;;;;;62.50;19.83;;;;;;;;;;6244613;23;20004;-82
2022/05/10 08:32:08;;;;;;;49.97;18.45;;;;;;;;;;6244291;23;20000;-84
2022/05/10 08:34:35;;;;;;;76.55;23.45;;;;;;;;;;6217646;23;20004;-84
2022/05/10 08:37:04;;;;;;;50.47;15.63;;;;;;;;;;6243872;23;20003;-81
2022/05/10 08:39:30;;;;;;;41.15;15.40;;;;;;;;;;6243558;23;20007;-81
2022/05/10 08:42:02;;;;;;;33.80;11.32;;;;;;;;;;6244394;23;20008;-82
2022/05/10 08:44:30;;;;;;;10.10;6.85;;;;;;;;;;6244129;23;20428;-82
2022/05/10 08:46:58;;;;;;;16.95;6.90;;;;;;;;;;6243605;23;19996;-83
2022/05/10 08:49:26;;;;;;;22.92;9.23;;;;;;;;;;6244141;23;20000;-83
2022/05/10 08:51:53;;;;;;;31.65;11.23;;;;;;;;;;6243211;23;20004;-83
2022/05/10 08:54:19;;;;;;;26.27;8.93;;;;;;;;;;6216972;23;20356;-80
2022/05/10 08:56:47;;;;;;;22.63;8.13;;;;;;;;;;6244020;23;20008;-83
2022/05/10 08:59:19;;;;;;;19.63;6.85;;;;;;;;;;6217023;23;20074;-83
2022/05/10 09:01:52;;;;;;;29.30;17.60;;;;;;;;;;6244124;23;20000;-81
2022/05/10 09:04:21;;;;;;;22.50;9.43;;;;;;;;;;6244390;23;20432;-84
2022/05/10 09:07:07;;;;;;;18.60;7.38;;;;;;;;;;6244117;23;19996;-81
2022/05/10 09:09:38;;;;;;;8.98;3.20;;;;;;;;;;6223467;23;20103;-81
2022/05/10 09:12:18;;;;;;;13.52;5.28;;;;;;;;;;6244476;23;20054;-81
2022/05/10 09:14:50;;;;;;;15.13;4.63;;;;;;;;;;6244369;23;20076;-82
2022/05/10 09:17:17;;;;;;;8.35;4.93;;;;;;;;;;6243889;23;20028;-81
2022/05/10 09:19:46;;;;;;;10.02;4.13;;;;;;;;;;6243518;23;20363;-81
2022/05/10 09:22:27;;;;;;;15.77;5.95;;;;;;;;;;6244243;23;20133;-82
2022/05/10 09:24:56;;;;;;;10.90;4.15;;;;;;;;;;6243528;23;20036;-84
2022/05/10 09:27:27;;;;;;;10.40;4.88;;;;;;;;;;6243539;23;20421;-82
2022/05/10 09:29:53;;;;;;;9.98;4.72;;;;;;;;;;6244021;23;20004;-83
2022/05/10 09:35:16;;;;;;;8.77;3.25;;;;;;;;;;6243725;23;20051;-82
2022/05/10 09:37:45;;;;;;;7.65;3.65;;;;;;;;;;6243025;23;20010;-82
2022/05/10 09:40:32;;;;;;;10.68;4.80;;;;;;;;;;6243624;23;20000;-82
2022/05/10 09:43:12;;;;;;;5.45;2.25;;;;;;;;;;6243884;23;20094;-83
2022/05/10 09:45:39;;;;;;;5.28;2.67;;;;;;;;;;6217685;23;20420;-82
2022/05/10 09:48:08;;;;;;;4.50;2.20;;;;;;;;;;6243962;23;20087;-81
2022/05/10 09:50:35;;;;;;;3.28;2.10;;;;;;;;;;6243675;23;20306;-82
2022/05/10 09:53:18;;;;;;;6.28;2.72;;;;;;;;;;6218678;23;20011;-82
2022/05/10 09:56:03;;;;;;;6.93;2.95;;;;;;;;;;6245758;23;20020;-79
2022/05/10 09:58:48;;;;;;;4.68;2.42;;;;;;;;;;6245266;23;20080;-82
2022/05/10 10:01:16;;;;;;;4.88;2.50;;;;;;;;;;6218680;23;20363;-84
2022/05/10 10:03:44;;;;;;;4.65;2.08;;;;;;;;;;6245676;23;20011;-80
2022/05/10 10:06:19;;;;;;;5.60;2.70;;;;;;;;;;6245281;23;20050;-82
2022/05/10 10:08:47;;;;;;;4.88;2.53;;;;;;;;;;6245286;23;20432;-83
2022/05/10 10:11:32;;;;;;;4.68;1.73;;;;;;;;;;6218138;23;20000;-83
2022/05/10 10:13:59;;;;;;;6.55;2.10;;;;;;;;;;6245567;23;19996;-82
2022/05/10 10:16:26;;;;;;;5.13;2.08;;;;;;;;;;6245211;23;19996;-81
2022/05/10 10:18:58;;;;;;;6.10;2.45;;;;;;;;;;6245650;23;20432;-82
2022/05/10 10:21:31;;;;;;;5.18;2.30;;;;;;;;;;6218749;23;20091;-82
2022/05/10 10:26:51;;;;;;;2.97;1.92;;;;;;;;;;6216401;23;20339;-82
2022/05/10 10:29:20;;;;;;;4.38;2.47;;;;;;;;;;6245040;23;20000;-81
2022/05/10 10:31:48;;;;;;;10.38;3.92;;;;;;;;;;6244892;23;19996;-83
2022/05/10 10:34:19;;;;;;;21.33;9.05;;;;;;;;;;6244422;23;20085;-75
2022/05/10 10:36:58;;;;;;;16.08;5.78;;;;;;;;;;6244188;23;20050;-83
2022/05/10 10:39:24;;;;;;;26.55;8.63;;;;;;;;;;6244867;23;20013;-85
2022/05/10 10:41:54;;;;;;;28.63;10.35;;;;;;;;;;6245328;23;20012;-85
2022/05/10 10:44:31;;;;;;;4.65;2.53;;;;;;;;;;6218646;23;20000;-83
2022/05/10 10:47:00;;;;;;;64.35;20.58;;;;;;;;;;6245359;23;20011;-82
2022/05/10 10:49:35;;;;;;;233.63;73.60;;;;;;;;;;6245133;23;20433;-82
2022/05/10 10:52:04;;;;;;;165.40;55.80;;;;;;;;;;6244715;23;20027;-82
2022/05/10 10:54:31;;;;;;;70.20;22.63;;;;;;;;;;6245367;23;20012;-81
2022/05/10 10:57:00;;;;;;;18.63;6.75;;;;;;;;;;6245567;23;20016;-82
2022/05/10 10:59:34;;;;;;;14.90;6.05;;;;;;;;;;6218172;23;20001;-80
2022/05/10 11:02:06;;;;;;;15.90;5.75;;;;;;;;;;6245065;23;20043;-82
2022/05/10 11:04:50;;;;;;;10.45;2.35;;;;;;;;;;6244429;23;20080;-81
2022/05/10 11:07:26;;;;;;;7.38;2.10;;;;;;;;;;6244915;23;20000;-79
2022/05/10 11:09:55;;;;;;;22.90;8.52;;;;;;;;;;6244376;23;20004;-79
2022/05/10 11:12:21;;;;;;;12.77;4.85;;;;;;;;;;6244564;23;20008;-78
2022/05/10 11:14:58;;;;;;;9.95;3.20;;;;;;;;;;6244533;23;20503;-77
2022/05/10 11:17:24;;;;;;;6.65;3.38;;;;;;;;;;6245001;23;19992;-84
2022/05/10 11:19:50;;;;;;;6.85;2.50;;;;;;;;;;6245068;23;20007;-81
2022/05/10 11:22:22;;;;;;;5.10;2.03;;;;;;;;;;6244647;23;20015;-79
2022/05/10 11:24:55;;;;;;;3.35;2.08;;;;;;;;;;6244662;23;20368;-80
2022/05/10 11:27:39;;;;;;;2.25;1.67;;;;;;;;;;6244363;23;20000;-78
2022/05/10 11:30:08;;;;;;;7.20;1.95;;;;;;;;;;6244700;23;20008;-81
2022/05/10 11:32:40;;;;;;;5.20;1.60;;;;;;;;;;6244621;23;19996;-82
2022/05/10 11:35:06;;;;;;;4.35;2.60;;;;;;;;;;6244880;23;20026;-82
2022/05/10 11:37:38;;;;;;;3.28;2.33;;;;;;;;;;6245200;23;20023;-82
2022/05/10 11:40:14;;;;;;;4.35;2.17;;;;;;;;;;6245561;23;20002;-83
2022/05/10 11:43:07;;;;;;;4.22;2.05;;;;;;;;;;6218879;23;20024;-81
2022/05/10 11:45:52;;;;;;;2.47;1.80;;;;;;;;;;6200755;23;20011;-78
2022/05/10 11:48:27;;;;;;;5.20;2.70;;;;;;;;;;6245450;23;20054;-78
2022/05/10 11:54:06;;;;;;;2.70;1.85;;;;;;;;;;6246277;23;20431;-77
2022/05/10 11:56:36;;;;;;;3.00;1.80;;;;;;;;;;6245689;23;20012;-77
2022/05/10 11:59:04;;;;;;;6.03;4.20;;;;;;;;;;6245545;23;20004;-78
2022/05/10 12:01:51;;;;;;;3.33;2.20;;;;;;;;;;6245947;23;20051;-78
2022/05/10 12:04:29;;;;;;;5.15;2.50;;;;;;;;;;6245936;23;20003;-76
2022/05/10 12:06:56;;;;;;;5.53;2.10;;;;;;;;;;6245351;23;20432;-75
2022/05/10 12:09:40;;;;;;;83.70;30.02;;;;;;;;;;6245945;23;20000;-77
2022/05/10 12:12:06;;;;;;;61.97;21.42;;;;;;;;;;6245370;23;20031;-83
2022/05/10 12:23:41;;;;;;;4.03;1.98;;;;;;;;;;6245795;23;20343;-82
2022/05/10 12:26:08;;;;;;;3.05;1.80;;;;;;;;;;6218310;23;20416;-85
2022/05/10 12:28:56;;;;;;;4.40;1.92;;;;;;;;;;6245565;23;20061;-86
2022/05/10 12:31:45;;;;;;;3.22;1.42;;;;;;;;;;6245731;23;20066;-85
2022/05/10 12:34:36;;;;;;;5.10;1.98;;;;;;;;;;6218024;23;20005;-85
2022/05/10 12:37:39;;;;;;;;;;;;;;;;;;;;;
2022/05/10 12:40:09;;;;;;;6.78;2.03;;;;;;;;;;6245478;23;20095;-86
2022/05/10 12:43:03;;;;;;;;;;;;;;;;;;;;;
2022/05/10 12:45:48;;;;;;;4.45;1.80;;;;;;;;;;6245662;23;20072;-81
2022/05/10 12:48:23;;;;;;;5.15;2.10;;;;;;;;;;6245807;23;20046;-82
2022/05/10 12:51:03;;;;;;;5.85;1.83;;;;;;;;;;6245574;23;20004;-82
2022/05/10 12:53:47;;;;;;;2.95;1.67;;;;;;;;;;6218656;23;20755;-82
2022/05/10 12:56:24;;;;;;;5.70;2.35;;;;;;;;;;6245241;23;20502;-81
2022/05/10 12:58:58;;;;;;;3.00;2.00;;;;;;;;;;6245414;23;20012;-80
2022/05/10 13:01:25;;;;;;;2.58;2.35;;;;;;;;;;6245517;23;20083;-81
2022/05/10 13:03:59;;;;;;;3.10;1.80;;;;;;;;;;6243878;23;20440;-82
2022/05/10 13:06:46;;;;;;;4.82;2.20;;;;;;;;;;6244726;23;20467;-82
2022/05/10 13:09:30;;;;;;;3.88;2.22;;;;;;;;;;6245379;23;20143;-84
2022/05/10 13:12:08;;;;;;;7.63;2.00;;;;;;;;;;6245100;23;20071;-82
2022/05/10 13:14:36;;;;;;;4.78;1.92;;;;;;;;;;6245432;23;20332;-82
2022/05/10 13:17:03;;;;;;;4.53;2.30;;;;;;;;;;6244611;23;19996;-81
2022/05/10 13:19:30;;;;;;;5.78;2.13;;;;;;;;;;6245263;23;20332;-81
2022/05/10 13:21:57;;;;;;;3.20;1.50;;;;;;;;;;6245398;23;20004;-80
2022/05/10 13:24:24;;;;;;;4.90;1.95;;;;;;;;;;6218671;23;20369;-80
2022/05/10 13:26:55;;;;;;;4.05;1.55;;;;;;;;;;6247300;23;20059;-79
2022/05/10 13:29:35;;;;;;;2.78;1.55;;;;;;;;;;6246563;23;20000;-81
2022/05/10 13:32:01;;;;;;;3.03;2.20;;;;;;;;;;6246518;23;20000;-79
2022/05/10 13:34:27;;;;;;;4.13;1.80;;;;;;;;;;6245835;23;20027;-81
2022/05/10 13:36:53;;;;;;;1.63;1.25;;;;;;;;;;6247111;23;19997;-82
2022/05/10 13:39:25;;;;;;;2.00;1.55;;;;;;;;;;6248372;23;20521;-80
2022/05/10 13:41:52;;;;;;;6.95;1.80;;;;;;;;;;6247630;23;20324;-80
2022/05/10 13:44:21;;;;;;;4.30;1.85;;;;;;;;;;6244913;23;20000;-80
2022/05/10 13:46:47;;;;;;;6.75;1.63;;;;;;;;;;6246569;23;20040;-80
2022/05/10 13:49:15;;;;;;;3.33;1.50;;;;;;;;;;6246796;23;20431;-79
2022/05/10 13:51:44;;;;;;;2.85;1.77;;;;;;;;;;6246305;23;20424;-78
2022/05/10 13:54:29;;;;;;;2.88;1.35;;;;;;;;;;6246440;23;20014;-80
2022/05/10 13:57:14;;;;;;;3.20;1.90;;;;;;;;;;6219232;23;20069;-80
2022/05/10 13:59:41;;;;;;;3.05;2.40;;;;;;;;;;6246411;23;20004;-78
2022/05/10 14:02:09;;;;;;;5.50;2.40;;;;;;;;;;6246263;23;20071;-79
2022/05/10 14:04:41;;;;;;;2.55;1.63;;;;;;;;;;6246718;23;20000;-82
2022/05/10 14:07:10;;;;;;;3.00;1.50;;;;;;;;;;6246426;23;20015;-80
2022/05/10 14:09:42;;;;;;;2.25;1.13;;;;;;;;;;6246670;23;20416;-79
2022/05/10 14:12:13;;;;;;;3.10;1.55;;;;;;;;;;6246393;23;20007;-79
2022/05/10 14:14:39;;;;;;;4.80;2.17;;;;;;;;;;6246605;23;20039;-79
2022/05/10 14:17:06;;;;;;;3.28;1.27;;;;;;;;;;6246457;23;20488;-80
2022/05/10 14:19:34;;;;;;;2.85;1.40;;;;;;;;;;6246580;23;20004;-80
2022/05/10 14:22:04;;;;;;;4.05;1.38;;;;;;;;;;6246429;23;20008;-80
2022/05/10 14:24:31;;;;;;;2.17;1.50;;;;;;;;;;6246495;23;20351;-80
2022/05/10 14:27:18;;;;;;;3.22;1.35;;;;;;;;;;6246355;23;20000;-80
2022/05/10 14:29:46;;;;;;;4.00;1.20;;;;;;;;;;6246519;23;20003;-78
2022/05/10 14:32:30;;;;;;;3.65;1.50;;;;;;;;;;6246154;23;20008;-80
2022/05/10 14:35:15;;;;;;;5.03;1.73;;;;;;;;;;6246280;23;20000;-79
2022/05/10 14:37:43;;;;;;;5.55;1.60;;;;;;;;;;6246221;23;20080;-79
2022/05/10 14:40:27;;;;;;;3.42;1.30;;;;;;;;;;6246295;23;20057;-79
2022/05/10 14:42:54;;;;;;;5.20;1.63;;;;;;;;;;6245760;23;20015;-79
2022/05/10 14:45:26;;;;;;;5.07;1.65;;;;;;;;;;6218294;23;20043;-79
2022/05/10 14:47:57;;;;;;;3.55;1.15;;;;;;;;;;6246072;23;20000;-79
2022/05/10 14:50:32;;;;;;;3.28;1.50;;;;;;;;;;6245483;23;20004;-78
2022/05/10 14:53:12;;;;;;;4.28;1.30;;;;;;;;;;6245992;23;20431;-80
2022/05/10 14:55:40;;;;;;;3.63;1.33;;;;;;;;;;6245927;23;20016;-78
2022/05/10 14:58:08;;;;;;;3.22;1.50;;;;;;;;;;6245365;23;20391;-79
2022/05/10 15:03:20;;;;;;;6.20;1.60;;;;;;;;;;6245970;23;20142;-80
2022/05/10 15:05:48;;;;;;;15.07;2.78;;;;;;;;;;6245743;23;20000;-78
2022/05/10 15:08:17;;;;;;;3.75;1.45;;;;;;;;;;6193780;23;20506;-83
2022/05/10 15:10:44;;;;;;;10.93;1.50;;;;;;;;;;6245889;23;20000;-79
2022/05/10 15:13:10;;;;;;;4.55;1.50;;;;;;;;;;6245530;23;20040;-80
2022/05/10 15:15:45;;;;;;;3.78;1.10;;;;;;;;;;6245792;23;20428;-80
2022/05/10 15:20:56;;;;;;;6.28;1.50;;;;;;;;;;6245904;23;20059;-81
2022/05/10 15:23:22;;;;;;;4.28;1.80;;;;;;;;;;6244981;23;20004;-80
2022/05/10 15:25:48;;;;;;;3.17;1.27;;;;;;;;;;6245749;23;20023;-79
2022/05/10 15:28:15;;;;;;;6.65;2.28;;;;;;;;;;6245483;23;20011;-81
2022/05/10 15:30:41;;;;;;;4.53;1.20;;;;;;;;;;6245512;23;20344;-79
2022/05/10 15:33:07;;;;;;;2.25;0.90;;;;;;;;;;6245397;23;20007;-80
2022/05/10 15:35:33;;;;;;;2.45;1.10;;;;;;;;;;6245478;23;20003;-79